sensor_id;sensor_type;location;lat;lon;timestamp;pressure;altitude;pressure_sealevel;temperature;humidity
16331;BME280;8275;48.206;16.340;2023-08-24T00:01:02;99368.63;;;29.90;41.79
16331;BME280;8275;48.206;16.340;2023-08-24T00:03:31;99373.88;;;29.88;41.73
16331;BME280;8275;48.206;16.340;2023-08-24T00:06:00;99367.78;;;29.86;41.88
16331;BME280;8275;48.206;16.340;2023-08-24T00:08:29;99363.31;;;29.85;42.06
16331;BME280;8275;48.206;16.340;2023-08-24T00:10:59;99363.28;;;29.81;42.34
16331;BME280;8275;48.206;16.340;2023-08-24T00:13:28;99368.94;;;29.81;42.31
16331;BME280;8275;48.206;16.340;2023-08-24T00:15:56;99367.69;;;29.79;42.71
16331;BME280;8275;48.206;16.340;2023-08-24T00:18:25;99367.69;;;29.79;42.40
16331;BME280;8275;48.206;16.340;2023-08-24T00:20:53;99373.31;;;29.79;42.58
16331;BME280;8275;48.206;16.340;2023-08-24T00:23:22;99363.22;;;29.78;42.76
16331;BME280;8275;48.206;16.340;2023-08-24T00:25:50;99366.44;;;29.76;42.72
16331;BME280;8275;48.206;16.340;2023-08-24T00:28:20;99362.31;;;29.74;42.90
16331;BME280;8275;48.206;16.340;2023-08-24T00:30:49;99361.91;;;29.72;43.18
16331;BME280;8275;48.206;16.340;2023-08-24T00:33:18;99361.06;;;29.71;43.35
16331;BME280;8275;48.206;16.340;2023-08-24T00:35:46;99366.72;;;29.71;43.40
16331;BME280;8275;48.206;16.340;2023-08-24T00:38:15;99359.88;;;29.72;43.54
16331;BME280;8275;48.206;16.340;2023-08-24T00:40:43;99364.72;;;29.72;43.51
16331;BME280;8275;48.206;16.340;2023-08-24T00:43:13;99357.03;;;29.72;43.66
16331;BME280;8275;48.206;16.340;2023-08-24T00:45:43;99353.78;;;29.70;43.63
16331;BME280;8275;48.206;16.340;2023-08-24T00:48:12;99352.59;;;29.71;43.72
16331;BME280;8275;48.206;16.340;2023-08-24T00:50:41;99353.34;;;29.68;43.85
16331;BME280;8275;48.206;16.340;2023-08-24T00:53:09;99364.66;;;29.68;44.10
16331;BME280;8275;48.206;16.340;2023-08-24T00:55:38;99359.78;;;29.65;44.13
16331;BME280;8275;48.206;16.340;2023-08-24T00:58:08;99361.34;;;29.63;44.05
16331;BME280;8275;48.206;16.340;2023-08-24T01:00:37;99361.28;;;29.59;43.95
16331;BME280;8275;48.206;16.340;2023-08-24T01:03:07;99355.22;;;29.57;44.13
16331;BME280;8275;48.206;16.340;2023-08-24T01:05:36;99359.59;;;29.55;43.95
16331;BME280;8275;48.206;16.340;2023-08-24T01:08:05;99353.53;;;29.53;44.05
16331;BME280;8275;48.206;16.340;2023-08-24T01:10:44;99348.63;;;29.50;44.09
16331;BME280;8275;48.206;16.340;2023-08-24T01:13:25;99351.47;;;29.50;43.62
16331;BME280;8275;48.206;16.340;2023-08-24T01:16:00;99346.19;;;29.48;44.15
16331;BME280;8275;48.206;16.340;2023-08-24T01:18:33;99355.09;;;29.50;43.89
16331;BME280;8275;48.206;16.340;2023-08-24T01:21:04;99367.22;;;29.51;43.86
16331;BME280;8275;48.206;16.340;2023-08-24T01:23:41;99368.03;;;29.51;43.72
16331;BME280;8275;48.206;16.340;2023-08-24T01:26:16;99366.00;;;29.52;44.20
16331;BME280;8275;48.206;16.340;2023-08-24T01:28:46;99358.78;;;29.54;44.05
16331;BME280;8275;48.206;16.340;2023-08-24T01:31:15;99360.44;;;29.55;44.14
16331;BME280;8275;48.206;16.340;2023-08-24T01:33:45;99356.41;;;29.56;43.84
16331;BME280;8275;48.206;16.340;2023-08-24T01:36:15;99355.59;;;29.56;43.86
16331;BME280;8275;48.206;16.340;2023-08-24T01:38:46;99354.78;;;29.55;43.85
16331;BME280;8275;48.206;16.340;2023-08-24T01:41:25;99362.00;;;29.53;43.71
16331;BME280;8275;48.206;16.340;2023-08-24T01:43:57;99362.00;;;29.53;43.94
16331;BME280;8275;48.206;16.340;2023-08-24T01:46:27;99360.75;;;29.50;43.86
16331;BME280;8275;48.206;16.340;2023-08-24T01:48:57;99359.94;;;29.50;43.75
16331;BME280;8275;48.206;16.340;2023-08-24T01:51:26;99355.50;;;29.49;44.17
16331;BME280;8275;48.206;16.340;2023-08-24T01:53:56;99355.06;;;29.47;44.03
16331;BME280;8275;48.206;16.340;2023-08-24T01:56:27;99358.25;;;29.45;43.76
16331;BME280;8275;48.206;16.340;2023-08-24T01:58:55;99357.44;;;29.45;44.10
16331;BME280;8275;48.206;16.340;2023-08-24T02:01:24;99355.81;;;29.44;44.02
16331;BME280;8275;48.206;16.340;2023-08-24T02:03:53;99342.09;;;29.42;44.05
16331;BME280;8275;48.206;16.340;2023-08-24T02:06:22;99345.28;;;29.41;43.77
16331;BME280;8275;48.206;16.340;2023-08-24T02:08:50;99347.66;;;29.39;43.97
16331;BME280;8275;48.206;16.340;2023-08-24T02:11:17;99346.41;;;29.36;44.00
16331;BME280;8275;48.206;16.340;2023-08-24T02:13:47;99348.38;;;29.32;43.91
16331;BME280;8275;48.206;16.340;2023-08-24T02:16:16;99339.47;;;29.30;43.90
16331;BME280;8275;48.206;16.340;2023-08-24T02:18:45;99344.69;;;29.28;44.07
16331;BME280;8275;48.206;16.340;2023-08-24T02:21:13;99344.63;;;29.25;44.11
16331;BME280;8275;48.206;16.340;2023-08-24T02:23:43;99339.75;;;29.22;44.13
16331;BME280;8275;48.206;16.340;2023-08-24T02:26:11;99344.13;;;29.19;44.29
16331;BME280;8275;48.206;16.340;2023-08-24T02:28:40;99349.66;;;29.15;44.04
16331;BME280;8275;48.206;16.340;2023-08-24T02:31:10;99347.59;;;29.12;44.15
16331;BME280;8275;48.206;16.340;2023-08-24T02:33:38;99347.97;;;29.11;44.18
16331;BME280;8275;48.206;16.340;2023-08-24T02:36:07;99348.72;;;29.08;44.30
16331;BME280;8275;48.206;16.340;2023-08-24T02:38:35;99345.88;;;29.04;44.38
16331;BME280;8275;48.206;16.340;2023-08-24T02:41:05;99332.06;;;28.99;44.91
16331;BME280;8275;48.206;16.340;2023-08-24T02:43:34;99336.47;;;28.97;44.61
16331;BME280;8275;48.206;16.340;2023-08-24T02:46:06;99337.22;;;28.94;44.76
16331;BME280;8275;48.206;16.340;2023-08-24T02:48:36;99338.78;;;28.91;45.11
16331;BME280;8275;48.206;16.340;2023-08-24T02:51:05;99330.25;;;28.88;44.77
16331;BME280;8275;48.206;16.340;2023-08-24T02:53:34;99340.28;;;28.85;44.81
16331;BME280;8275;48.206;16.340;2023-08-24T02:56:03;99333.38;;;28.83;45.02
16331;BME280;8275;48.206;16.340;2023-08-24T02:58:32;99332.50;;;28.79;44.94
16331;BME280;8275;48.206;16.340;2023-08-24T03:01:05;99341.28;;;28.74;45.15
16331;BME280;8275;48.206;16.340;2023-08-24T03:03:36;99338.84;;;28.72;45.34
16331;BME280;8275;48.206;16.340;2023-08-24T03:06:07;99338.03;;;28.72;45.53
16331;BME280;8275;48.206;16.340;2023-08-24T03:08:37;99348.88;;;28.70;45.44
16331;BME280;8275;48.206;16.340;2023-08-24T03:11:05;99348.88;;;28.70;45.35
16331;BME280;8275;48.206;16.340;2023-08-24T03:13:37;99346.00;;;28.66;45.82
16331;BME280;8275;48.206;16.340;2023-08-24T03:16:06;99345.59;;;28.68;45.70
16331;BME280;8275;48.206;16.340;2023-08-24T03:18:36;99342.78;;;28.68;45.37
16331;BME280;8275;48.206;16.340;2023-08-24T03:21:05;99355.31;;;28.70;45.67
16331;BME280;8275;48.206;16.340;2023-08-24T03:23:33;99348.47;;;28.71;45.69
16331;BME280;8275;48.206;16.340;2023-08-24T03:26:02;99355.31;;;28.70;45.65
16331;BME280;8275;48.206;16.340;2023-08-24T03:28:31;99350.50;;;28.71;45.66
16331;BME280;8275;48.206;16.340;2023-08-24T03:31:00;99357.72;;;28.68;45.45
16331;BME280;8275;48.206;16.340;2023-08-24T03:33:29;99352.06;;;28.68;45.87
16331;BME280;8275;48.206;16.340;2023-08-24T03:35:59;99363.69;;;28.67;45.91
16331;BME280;8275;48.206;16.340;2023-08-24T03:38:28;99366.91;;;28.65;45.75
16331;BME280;8275;48.206;16.340;2023-08-24T03:41:00;99360.75;;;28.60;45.77
16331;BME280;8275;48.206;16.340;2023-08-24T03:43:32;99357.13;;;28.59;45.86
16331;BME280;8275;48.206;16.340;2023-08-24T03:46:01;99365.47;;;28.56;45.84
16331;BME280;8275;48.206;16.340;2023-08-24T03:48:31;99365.03;;;28.53;46.07
16331;BME280;8275;48.206;16.340;2023-08-24T03:51:01;99366.25;;;28.52;46.08
16331;BME280;8275;48.206;16.340;2023-08-24T03:53:30;99366.25;;;28.52;46.37
16331;BME280;8275;48.206;16.340;2023-08-24T03:55:59;99367.84;;;28.53;46.34
16331;BME280;8275;48.206;16.340;2023-08-24T03:58:28;99367.84;;;28.53;46.90
16331;BME280;8275;48.206;16.340;2023-08-24T04:00:57;99369.06;;;28.52;47.03
16331;BME280;8275;48.206;16.340;2023-08-24T04:03:25;99369.84;;;28.53;46.96
16331;BME280;8275;48.206;16.340;2023-08-24T04:05:54;99371.88;;;28.52;47.17
16331;BME280;8275;48.206;16.340;2023-08-24T04:08:24;99379.88;;;28.50;47.31
16331;BME280;8275;48.206;16.340;2023-08-24T04:10:53;99371.78;;;28.49;47.02
16331;BME280;8275;48.206;16.340;2023-08-24T04:13:21;99377.81;;;28.47;47.34
16331;BME280;8275;48.206;16.340;2023-08-24T04:15:50;99383.81;;;28.46;47.10
16331;BME280;8275;48.206;16.340;2023-08-24T04:18:18;99378.94;;;28.43;47.08
16331;BME280;8275;48.206;16.340;2023-08-24T04:20:47;99382.09;;;28.41;47.41
16331;BME280;8275;48.206;16.340;2023-08-24T04:23:15;99386.47;;;28.39;47.21
16331;BME280;8275;48.206;16.340;2023-08-24T04:25:46;99394.50;;;28.37;47.64
16331;BME280;8275;48.206;16.340;2023-08-24T04:28:15;99390.06;;;28.36;47.81
16331;BME280;8275;48.206;16.340;2023-08-24T04:30:50;99383.16;;;28.33;47.50
16331;BME280;8275;48.206;16.340;2023-08-24T04:33:19;99385.97;;;28.33;48.05
16331;BME280;8275;48.206;16.340;2023-08-24T04:35:48;99385.16;;;28.33;48.01
16331;BME280;8275;48.206;16.340;2023-08-24T04:38:17;99391.97;;;28.32;47.53
16331;BME280;8275;48.206;16.340;2023-08-24T04:40:51;99394.00;;;28.31;48.02
16331;BME280;8275;48.206;16.340;2023-08-24T04:43:21;99389.97;;;28.32;47.84
16331;BME280;8275;48.206;16.340;2023-08-24T04:45:51;99394.44;;;28.33;47.81
16331;BME280;8275;48.206;16.340;2023-08-24T04:48:20;99393.22;;;28.34;48.03
16331;BME280;8275;48.206;16.340;2023-08-24T04:50:49;99400.50;;;28.35;48.06
16331;BME280;8275;48.206;16.340;2023-08-24T04:53:20;99402.59;;;28.38;48.22
16331;BME280;8275;48.206;16.340;2023-08-24T04:55:50;99399.38;;;28.40;48.09
16331;BME280;8275;48.206;16.340;2023-08-24T04:58:19;99405.09;;;28.43;47.77
16331;BME280;8275;48.206;16.340;2023-08-24T05:00:48;99403.97;;;28.48;47.75
16331;BME280;8275;48.206;16.340;2023-08-24T05:03:17;99405.69;;;28.52;48.15
16331;BME280;8275;48.206;16.340;2023-08-24T05:05:47;99404.94;;;28.56;47.93
16331;BME280;8275;48.206;16.340;2023-08-24T05:08:16;99400.69;;;28.62;48.13
16331;BME280;8275;48.206;16.340;2023-08-24T05:10:44;99410.44;;;28.68;48.07
16331;BME280;8275;48.206;16.340;2023-08-24T05:13:15;99400.06;;;28.72;47.86
16331;BME280;8275;48.206;16.340;2023-08-24T05:15:43;99405.38;;;28.77;47.59
16331;BME280;8275;48.206;16.340;2023-08-24T05:18:12;99409.53;;;28.83;47.51
16331;BME280;8275;48.206;16.340;2023-08-24T05:20:40;99406.41;;;28.88;47.33
16331;BME280;8275;48.206;16.340;2023-08-24T05:23:09;99408.09;;;28.92;47.67
16331;BME280;8275;48.206;16.340;2023-08-24T05:25:37;99408.19;;;28.96;47.42
16331;BME280;8275;48.206;16.340;2023-08-24T05:28:06;99405.06;;;29.01;47.12
16331;BME280;8275;48.206;16.340;2023-08-24T05:30:36;99401.91;;;29.06;47.13
16331;BME280;8275;48.206;16.340;2023-08-24T05:33:05;99406.84;;;29.12;47.06
16331;BME280;8275;48.206;16.340;2023-08-24T05:35:33;99397.28;;;29.17;47.01
16331;BME280;8275;48.206;16.340;2023-08-24T05:38:02;99405.88;;;29.24;47.16
16331;BME280;8275;48.206;16.340;2023-08-24T05:40:33;99398.31;;;29.28;47.16
16331;BME280;8275;48.206;16.340;2023-08-24T05:43:02;99398.84;;;29.37;46.69
16331;BME280;8275;48.206;16.340;2023-08-24T05:45:31;99401.72;;;29.41;46.54
16331;BME280;8275;48.206;16.340;2023-08-24T05:48:01;99401.41;;;29.46;46.40
16331;BME280;8275;48.206;16.340;2023-08-24T05:50:29;99398.69;;;29.53;46.33
16331;BME280;8275;48.206;16.340;2023-08-24T05:52:58;99394.34;;;29.59;46.14
16331;BME280;8275;48.206;16.340;2023-08-24T05:55:26;99404.19;;;29.68;46.11
16331;BME280;8275;48.206;16.340;2023-08-24T05:57:55;99403.56;;;29.78;45.92
16331;BME280;8275;48.206;16.340;2023-08-24T06:00:23;99407.75;;;29.88;45.93
16331;BME280;8275;48.206;16.340;2023-08-24T06:02:52;99396.56;;;29.95;45.64
16331;BME280;8275;48.206;16.340;2023-08-24T06:05:22;99399.91;;;30.04;45.45
16331;BME280;8275;48.206;16.340;2023-08-24T06:07:50;99405.31;;;30.16;45.17
16331;BME280;8275;48.206;16.340;2023-08-24T06:10:20;99393.34;;;30.26;44.99
16331;BME280;8275;48.206;16.340;2023-08-24T06:12:49;99399.97;;;30.37;44.44
16331;BME280;8275;48.206;16.340;2023-08-24T06:15:17;99397.28;;;30.48;44.16
16331;BME280;8275;48.206;16.340;2023-08-24T06:17:46;99396.56;;;30.58;43.48
16331;BME280;8275;48.206;16.340;2023-08-24T06:20:17;99401.56;;;30.68;43.18
16331;BME280;8275;48.206;16.340;2023-08-24T06:22:47;99397.59;;;30.76;42.91
16331;BME280;8275;48.206;16.340;2023-08-24T06:25:17;99391.22;;;30.83;42.60
16331;BME280;8275;48.206;16.340;2023-08-24T06:27:46;99392.13;;;30.90;42.52
16331;BME280;8275;48.206;16.340;2023-08-24T06:30:15;99397.47;;;30.99;42.29
16331;BME280;8275;48.206;16.340;2023-08-24T06:32:44;99388.25;;;31.05;42.00
16331;BME280;8275;48.206;16.340;2023-08-24T06:35:12;99395.16;;;31.11;41.91
16331;BME280;8275;48.206;16.340;2023-08-24T06:37:43;99393.22;;;31.19;42.01
16331;BME280;8275;48.206;16.340;2023-08-24T06:40:13;99393.28;;;31.26;41.78
16331;BME280;8275;48.206;16.340;2023-08-24T06:42:42;99393.34;;;31.33;41.58
16331;BME280;8275;48.206;16.340;2023-08-24T06:45:10;99397.84;;;31.41;41.64
16331;BME280;8275;48.206;16.340;2023-08-24T06:47:39;99387.84;;;31.51;41.51
16331;BME280;8275;48.206;16.340;2023-08-24T06:50:09;99389.13;;;31.60;41.52
16331;BME280;8275;48.206;16.340;2023-08-24T06:52:38;99387.53;;;31.66;40.87
16331;BME280;8275;48.206;16.340;2023-08-24T06:55:08;99386.78;;;31.73;40.91
16331;BME280;8275;48.206;16.340;2023-08-24T06:57:39;99382.03;;;31.84;40.93
16331;BME280;8275;48.206;16.340;2023-08-24T07:00:09;99381.69;;;31.96;40.44
16331;BME280;8275;48.206;16.340;2023-08-24T07:02:42;99385.81;;;32.06;39.98
16331;BME280;8275;48.206;16.340;2023-08-24T07:05:10;99395.97;;;32.14;40.24
16331;BME280;8275;48.206;16.340;2023-08-24T07:07:39;99404.94;;;32.23;39.81
16331;BME280;8275;48.206;16.340;2023-08-24T07:10:10;99397.25;;;32.30;39.82
16331;BME280;8275;48.206;16.340;2023-08-24T07:12:40;99396.50;;;32.37;39.28
16331;BME280;8275;48.206;16.340;2023-08-24T07:15:10;99391.66;;;32.44;39.13
16331;BME280;8275;48.206;16.340;2023-08-24T07:17:39;99389.28;;;32.53;38.88
16331;BME280;8275;48.206;16.340;2023-08-24T07:20:09;99388.91;;;32.62;38.45
16331;BME280;8275;48.206;16.340;2023-08-24T07:22:39;99390.59;;;32.74;38.76
16331;BME280;8275;48.206;16.340;2023-08-24T07:25:08;99395.03;;;32.82;37.83
16331;BME280;8275;48.206;16.340;2023-08-24T07:27:40;99397.91;;;32.89;38.07
16331;BME280;8275;48.206;16.340;2023-08-24T07:30:10;99395.06;;;32.96;37.52
16331;BME280;8275;48.206;16.340;2023-08-24T07:32:59;99388.25;;;33.04;37.19
16331;BME280;8275;48.206;16.340;2023-08-24T07:35:29;99393.09;;;33.07;37.55
16331;BME280;8275;48.206;16.340;2023-08-24T07:37:57;99389.03;;;33.11;36.75
16331;BME280;8275;48.206;16.340;2023-08-24T07:40:26;99391.88;;;33.18;36.74
16331;BME280;8275;48.206;16.340;2023-08-24T07:42:56;99395.97;;;33.28;36.77
16331;BME280;8275;48.206;16.340;2023-08-24T07:45:25;99390.69;;;33.37;36.85
16331;BME280;8275;48.206;16.340;2023-08-24T07:47:54;99400.44;;;33.47;36.88
16331;BME280;8275;48.206;16.340;2023-08-24T07:50:22;99405.72;;;33.55;36.73
16331;BME280;8275;48.206;16.340;2023-08-24T07:52:51;99402.47;;;33.64;36.80
16331;BME280;8275;48.206;16.340;2023-08-24T07:55:23;99397.59;;;33.71;36.51
16331;BME280;8275;48.206;16.340;2023-08-24T07:57:52;99397.56;;;33.78;36.14
16331;BME280;8275;48.206;16.340;2023-08-24T08:00:22;99389.44;;;33.87;36.00
16331;BME280;8275;48.206;16.340;2023-08-24T08:02:52;99393.47;;;33.97;35.23
16331;BME280;8275;48.206;16.340;2023-08-24T08:05:21;99396.75;;;34.03;35.70
16331;BME280;8275;48.206;16.340;2023-08-24T08:07:50;99399.16;;;34.11;35.63
16331;BME280;8275;48.206;16.340;2023-08-24T08:10:20;99400.38;;;34.14;34.70
16331;BME280;8275;48.206;16.340;2023-08-24T08:12:49;99404.03;;;34.18;35.23
16331;BME280;8275;48.206;16.340;2023-08-24T08:15:17;99393.84;;;34.20;34.68
16331;BME280;8275;48.206;16.340;2023-08-24T08:17:47;99397.50;;;34.28;34.50
16331;BME280;8275;48.206;16.340;2023-08-24T08:20:17;99395.88;;;34.30;34.24
16331;BME280;8275;48.206;16.340;2023-08-24T08:22:45;99400.31;;;34.35;33.88
16331;BME280;8275;48.206;16.340;2023-08-24T08:25:15;99392.16;;;34.40;34.11
16331;BME280;8275;48.206;16.340;2023-08-24T08:27:45;99403.91;;;34.46;33.99
16331;BME280;8275;48.206;16.340;2023-08-24T08:30:14;99403.09;;;34.52;33.85
16331;BME280;8275;48.206;16.340;2023-08-24T08:32:43;99404.69;;;34.60;34.00
16331;BME280;8275;48.206;16.340;2023-08-24T08:35:13;99409.94;;;34.66;33.80
16331;BME280;8275;48.206;16.340;2023-08-24T08:37:41;99401.38;;;34.73;33.61
16331;BME280;8275;48.206;16.340;2023-08-24T08:40:11;99392.00;;;34.76;33.39
16331;BME280;8275;48.206;16.340;2023-08-24T08:42:41;99397.28;;;34.81;32.92
16331;BME280;8275;48.206;16.340;2023-08-24T08:45:10;99390.69;;;34.91;32.90
16331;BME280;8275;48.206;16.340;2023-08-24T08:47:39;99386.97;;;35.01;32.58
16331;BME280;8275;48.206;16.340;2023-08-24T08:50:09;99386.56;;;35.02;32.48
16331;BME280;8275;48.206;16.340;2023-08-24T08:52:40;99381.25;;;35.04;32.36
16331;BME280;8275;48.206;16.340;2023-08-24T08:55:08;99378.78;;;35.13;32.10
16331;BME280;8275;48.206;16.340;2023-08-24T08:57:38;99388.06;;;35.24;32.20
16331;BME280;8275;48.206;16.340;2023-08-24T09:00:11;99385.56;;;35.30;31.92
16331;BME280;8275;48.206;16.340;2023-08-24T09:02:44;99383.06;;;35.36;32.03
16331;BME280;8275;48.206;16.340;2023-08-24T09:05:14;99381.44;;;35.38;31.55
16331;BME280;8275;48.206;16.340;2023-08-24T09:07:44;99387.50;;;35.40;31.20
16331;BME280;8275;48.206;16.340;2023-08-24T09:10:14;99381.78;;;35.44;31.31
16331;BME280;8275;48.206;16.340;2023-08-24T09:12:43;99385.81;;;35.46;31.37
16331;BME280;8275;48.206;16.340;2023-08-24T09:15:12;99387.03;;;35.52;30.99
16331;BME280;8275;48.206;16.340;2023-08-24T09:17:44;99388.63;;;35.57;31.28
16331;BME280;8275;48.206;16.340;2023-08-24T09:20:14;99381.63;;;35.65;30.67
16331;BME280;8275;48.206;16.340;2023-08-24T09:22:44;99376.69;;;35.69;30.69
16331;BME280;8275;48.206;16.340;2023-08-24T09:25:13;99381.94;;;35.74;30.43
16331;BME280;8275;48.206;16.340;2023-08-24T09:27:42;99381.09;;;35.77;30.40
16331;BME280;8275;48.206;16.340;2023-08-24T09:30:11;99379.00;;;35.81;30.43
16331;BME280;8275;48.206;16.340;2023-08-24T09:32:41;99377.34;;;35.87;30.31
16331;BME280;8275;48.206;16.340;2023-08-24T09:35:12;99371.56;;;35.94;29.75
16331;BME280;8275;48.206;16.340;2023-08-24T09:37:41;99371.09;;;35.99;29.96
16331;BME280;8275;48.206;16.340;2023-08-24T09:40:14;99366.97;;;36.04;29.79
16331;BME280;8275;48.206;16.340;2023-08-24T09:42:43;99365.69;;;36.08;29.81
16331;BME280;8275;48.206;16.340;2023-08-24T09:45:13;99364.84;;;36.11;29.62
16331;BME280;8275;48.206;16.340;2023-08-24T09:47:49;99360.78;;;36.12;29.29
16331;BME280;8275;48.206;16.340;2023-08-24T09:50:18;99350.97;;;36.13;29.46
16331;BME280;8275;48.206;16.340;2023-08-24T09:52:47;99352.59;;;36.14;29.38
16331;BME280;8275;48.206;16.340;2023-08-24T09:55:21;99357.13;;;36.12;29.61
16331;BME280;8275;48.206;16.340;2023-08-24T09:57:54;99349.38;;;36.12;29.58
16331;BME280;8275;48.206;16.340;2023-08-24T10:00:25;99334.22;;;36.19;29.33
16331;BME280;8275;48.206;16.340;2023-08-24T10:02:55;99336.59;;;36.24;29.13
16331;BME280;8275;48.206;16.340;2023-08-24T10:05:25;99332.88;;;36.27;29.08
16331;BME280;8275;48.206;16.340;2023-08-24T10:08:09;99337.38;;;36.24;29.04
16331;BME280;8275;48.206;16.340;2023-08-24T10:10:42;99334.97;;;36.23;29.05
16331;BME280;8275;48.206;16.340;2023-08-24T10:13:18;99330.94;;;36.20;28.93
16331;BME280;8275;48.206;16.340;2023-08-24T10:15:50;99329.69;;;36.21;28.67
16331;BME280;8275;48.206;16.340;2023-08-24T10:18:20;99325.97;;;36.24;28.87
16331;BME280;8275;48.206;16.340;2023-08-24T10:20:52;99318.56;;;36.30;28.98
16331;BME280;8275;48.206;16.340;2023-08-24T10:23:21;99314.81;;;36.37;28.90
16331;BME280;8275;48.206;16.340;2023-08-24T10:25:53;99319.25;;;36.41;28.87
16331;BME280;8275;48.206;16.340;2023-08-24T10:28:24;99312.66;;;36.48;28.62
16331;BME280;8275;48.206;16.340;2023-08-24T10:30:53;99305.63;;;36.56;28.45
16331;BME280;8275;48.206;16.340;2023-08-24T10:33:23;99306.75;;;36.62;28.47
16331;BME280;8275;48.206;16.340;2023-08-24T10:35:53;99303.03;;;36.65;28.32
16331;BME280;8275;48.206;16.340;2023-08-24T10:38:27;99300.13;;;36.69;28.36
16331;BME280;8275;48.206;16.340;2023-08-24T10:41:03;99295.16;;;36.73;28.04
16331;BME280;8275;48.206;16.340;2023-08-24T10:43:35;99287.66;;;36.82;27.77
16331;BME280;8275;48.206;16.340;2023-08-24T10:46:04;99287.91;;;36.95;27.39
16331;BME280;8275;48.206;16.340;2023-08-24T10:48:57;99282.69;;;37.13;27.59
16331;BME280;8275;48.206;16.340;2023-08-24T10:51:26;99284.50;;;37.50;27.30
16331;BME280;8275;48.206;16.340;2023-08-24T10:53:57;99289.72;;;37.97;26.71
16331;BME280;8275;48.206;16.340;2023-08-24T10:56:35;99288.59;;;38.50;26.38
16331;BME280;8275;48.206;16.340;2023-08-24T10:59:14;99273.19;;;38.96;26.39
16331;BME280;8275;48.206;16.340;2023-08-24T11:01:54;99286.69;;;39.44;25.32
16331;BME280;8275;48.206;16.340;2023-08-24T11:04:23;99275.59;;;39.91;24.96
16331;BME280;8275;48.206;16.340;2023-08-24T11:06:54;99273.53;;;40.33;24.45
16331;BME280;8275;48.206;16.340;2023-08-24T11:09:23;99264.31;;;40.79;24.05
16331;BME280;8275;48.206;16.340;2023-08-24T11:11:58;99269.69;;;41.27;23.60
16331;BME280;8275;48.206;16.340;2023-08-24T11:14:28;99260.09;;;41.77;22.95
16331;BME280;8275;48.206;16.340;2023-08-24T11:16:59;99265.41;;;42.22;22.55
16331;BME280;8275;48.206;16.340;2023-08-24T11:19:28;99267.91;;;42.63;22.28
16331;BME280;8275;48.206;16.340;2023-08-24T11:21:58;99265.22;;;43.09;21.67
16331;BME280;8275;48.206;16.340;2023-08-24T11:24:27;99253.44;;;43.52;21.12
16331;BME280;8275;48.206;16.340;2023-08-24T11:26:58;99248.16;;;43.96;20.49
16331;BME280;8275;48.206;16.340;2023-08-24T11:29:29;99245.38;;;44.38;20.53
16331;BME280;8275;48.206;16.340;2023-08-24T11:31:58;99246.06;;;44.75;19.46
16331;BME280;8275;48.206;16.340;2023-08-24T11:34:27;99240.59;;;45.09;19.35
16331;BME280;8275;48.206;16.340;2023-08-24T11:36:56;99233.47;;;45.43;18.75
16331;BME280;8275;48.206;16.340;2023-08-24T11:39:24;99232.28;;;45.73;18.84
16331;BME280;8275;48.206;16.340;2023-08-24T11:42:02;99232.44;;;45.93;18.60
16331;BME280;8275;48.206;16.340;2023-08-24T11:44:45;99241.34;;;46.05;18.30
16331;BME280;8275;48.206;16.340;2023-08-24T11:47:14;99233.06;;;46.27;18.14
16331;BME280;8275;48.206;16.340;2023-08-24T11:49:43;99232.88;;;46.45;17.77
16331;BME280;8275;48.206;16.340;2023-08-24T11:52:12;99225.34;;;46.68;17.51
16331;BME280;8275;48.206;16.340;2023-08-24T11:54:43;99226.59;;;46.96;17.05
16331;BME280;8275;48.206;16.340;2023-08-24T11:57:14;99223.88;;;47.07;16.44
16331;BME280;8275;48.206;16.340;2023-08-24T11:59:43;99222.28;;;46.71;16.54
16331;BME280;8275;48.206;16.340;2023-08-24T12:02:13;99224.94;;;46.31;16.47
16331;BME280;8275;48.206;16.340;2023-08-24T12:04:42;99222.38;;;46.18;16.98
16331;BME280;8275;48.206;16.340;2023-08-24T12:07:11;99212.78;;;46.27;16.86
16331;BME280;8275;48.206;16.340;2023-08-24T12:09:40;99205.97;;;46.44;16.80
16331;BME280;8275;48.206;16.340;2023-08-24T12:12:14;99212.25;;;46.72;16.79
16331;BME280;8275;48.206;16.340;2023-08-24T12:14:43;99207.47;;;47.04;16.57
16331;BME280;8275;48.206;16.340;2023-08-24T12:17:13;99204.63;;;47.44;16.32
16331;BME280;8275;48.206;16.340;2023-08-24T12:19:42;99206.06;;;48.00;16.22
16331;BME280;8275;48.206;16.340;2023-08-24T12:22:15;99201.03;;;48.52;15.12
16331;BME280;8275;48.206;16.340;2023-08-24T12:24:45;99191.06;;;49.01;15.28
16331;BME280;8275;48.206;16.340;2023-08-24T12:27:24;99191.56;;;49.47;14.70
16331;BME280;8275;48.206;16.340;2023-08-24T12:29:53;99186.09;;;49.71;13.75
16331;BME280;8275;48.206;16.340;2023-08-24T12:32:22;99182.75;;;49.89;13.90
16331;BME280;8275;48.206;16.340;2023-08-24T12:34:52;99178.53;;;50.13;13.60
16331;BME280;8275;48.206;16.340;2023-08-24T12:37:22;99180.69;;;50.40;13.51
16331;BME280;8275;48.206;16.340;2023-08-24T12:39:50;99180.66;;;50.79;13.71
16331;BME280;8275;48.206;16.340;2023-08-24T12:42:20;99175.25;;;51.27;13.14
16331;BME280;8275;48.206;16.340;2023-08-24T12:44:49;99169.22;;;51.66;12.46
16331;BME280;8275;48.206;16.340;2023-08-24T12:47:17;99173.94;;;51.74;12.04
16331;BME280;8275;48.206;16.340;2023-08-24T12:49:47;99164.44;;;51.63;12.00
16331;BME280;8275;48.206;16.340;2023-08-24T12:52:15;99163.16;;;51.53;11.98
16331;BME280;8275;48.206;16.340;2023-08-24T12:54:44;99152.56;;;51.55;12.00
16331;BME280;8275;48.206;16.340;2023-08-24T12:57:12;99149.97;;;51.87;11.70
16331;BME280;8275;48.206;16.340;2023-08-24T12:59:42;99143.13;;;52.20;11.44
16331;BME280;8275;48.206;16.340;2023-08-24T13:02:11;99135.88;;;52.56;11.35
16331;BME280;8275;48.206;16.340;2023-08-24T13:04:55;99130.94;;;52.94;11.05
16331;BME280;8275;48.206;16.340;2023-08-24T13:07:28;99129.69;;;53.32;10.77
16331;BME280;8275;48.206;16.340;2023-08-24T13:09:57;99126.19;;;53.71;10.19
16331;BME280;8275;48.206;16.340;2023-08-24T13:12:26;99123.44;;;53.78;10.39
16331;BME280;8275;48.206;16.340;2023-08-24T13:14:56;99115.28;;;53.71;10.13